sensor_id;sensor_type;location;lat;lon;timestamp;temperature;humidity
49901;DHT22;35789;48.414;12.768;2023-12-29T00:00:00;4.7;99.9
49901;DHT22;35789;48.414;12.768;2023-12-29T00:05:00;4.7;99.9
49901;DHT22;35789;48.414;12.768;2023-12-29T00:10:00;4.7;99.9
49901;DHT22;35789;48.414;12.768;2023-12-29T00:15:00;4.6;99.9
49901;DHT22;35789;48.414;12.768;2023-12-29T00:20:00;4.6;99.9
49901;DHT22;35789;48.414;12.768;2023-12-29T00:25:00;4.6;99.9
49901;DHT22;35789;48.414;12.768;2023-12-29T00:30:00;4.6;99.9
49901;DHT22;35789;48.414;12.768;2023-12-29T00:35:00;4.6;99.9
49901;DHT22;35789;48.414;12.768;2023-12-29T00:40:00;4.5;99.9
49901;DHT22;35789;48.414;12.768;2023-12-29T00:45:00;4.5;99.9
49901;DHT22;35789;48.414;12.768;2023-12-29T00:50:00;4.4;99.9
49901;DHT22;35789;48.414;12.768;2023-12-29T00:55:00;4.3;99.9
49901;DHT22;35789;48.414;12.768;2023-12-29T01:00:00;4.2;99.9
49901;DHT22;35789;48.414;12.768;2023-12-29T01:05:00;4.1;99.9
49901;DHT22;35789;48.414;12.768;2023-12-29T01:10:00;4.0;99.9
49901;DHT22;35789;48.414;12.768;2023-12-29T01:15:00;4.0;99.9
49901;DHT22;35789;48.414;12.768;2023-12-29T01:20:00;3.9;99.9
49901;DHT22;35789;48.414;12.768;2023-12-29T01:25:00;3.8;99.9
49901;DHT22;35789;48.414;12.768;2023-12-29T01:30:00;3.8;99.9
49901;DHT22;35789;48.414;12.768;2023-12-29T01:35:00;3.8;99.9
49901;DHT22;35789;48.414;12.768;2023-12-29T01:40:00;3.8;99.9
49901;DHT22;35789;48.414;12.768;2023-12-29T01:45:00;3.7;99.9
49901;DHT22;35789;48.414;12.768;2023-12-29T01:50:00;3.7;99.9
49901;DHT22;35789;48.414;12.768;2023-12-29T01:55:00;3.5;99.9
49901;DHT22;35789;48.414;12.768;2023-12-29T02:00:00;3.5;99.9
49901;DHT22;35789;48.414;12.768;2023-12-29T02:05:00;3.4;99.9
49901;DHT22;35789;48.414;12.768;2023-12-29T02:10:00;3.3;99.9
49901;DHT22;35789;48.414;12.768;2023-12-29T02:15:00;3.3;99.9
49901;DHT22;35789;48.414;12.768;2023-12-29T02:20:00;3.2;99.9
49901;DHT22;35789;48.414;12.768;2023-12-29T02:25:00;3.1;99.9
49901;DHT22;35789;48.414;12.768;2023-12-29T02:30:04;3.2;99.9
49901;DHT22;35789;48.414;12.768;2023-12-29T02:35:00;3.1;99.9
49901;DHT22;35789;48.414;12.768;2023-12-29T02:40:00;3.1;99.9
49901;DHT22;35789;48.414;12.768;2023-12-29T02:45:00;3.1;99.9
49901;DHT22;35789;48.414;12.768;2023-12-29T02:50:00;3.0;99.9
49901;DHT22;35789;48.414;12.768;2023-12-29T02:55:00;3.0;99.9
49901;DHT22;35789;48.414;12.768;2023-12-29T03:00:00;3.0;99.9
49901;DHT22;35789;48.414;12.768;2023-12-29T03:05:00;2.9;99.9
49901;DHT22;35789;48.414;12.768;2023-12-29T03:10:00;2.9;99.9
49901;DHT22;35789;48.414;12.768;2023-12-29T03:15:00;2.8;99.9
49901;DHT22;35789;48.414;12.768;2023-12-29T03:20:00;2.8;99.9
49901;DHT22;35789;48.414;12.768;2023-12-29T03:25:00;2.8;99.9
49901;DHT22;35789;48.414;12.768;2023-12-29T03:30:00;2.7;99.9
49901;DHT22;35789;48.414;12.768;2023-12-29T03:35:00;2.6;99.9
49901;DHT22;35789;48.414;12.768;2023-12-29T03:40:00;2.5;99.9
49901;DHT22;35789;48.414;12.768;2023-12-29T03:45:00;2.5;99.9
49901;DHT22;35789;48.414;12.768;2023-12-29T03:50:00;2.5;99.9
49901;DHT22;35789;48.414;12.768;2023-12-29T03:55:00;2.5;99.9
49901;DHT22;35789;48.414;12.768;2023-12-29T04:00:00;2.5;99.9
49901;DHT22;35789;48.414;12.768;2023-12-29T04:05:00;2.4;99.9
49901;DHT22;35789;48.414;12.768;2023-12-29T04:10:00;2.4;99.9
49901;DHT22;35789;48.414;12.768;2023-12-29T04:15:00;2.4;99.9
49901;DHT22;35789;48.414;12.768;2023-12-29T04:20:00;2.4;99.9
49901;DHT22;35789;48.414;12.768;2023-12-29T04:25:00;2.3;99.9
49901;DHT22;35789;48.414;12.768;2023-12-29T04:30:00;2.3;99.9
49901;DHT22;35789;48.414;12.768;2023-12-29T04:35:00;2.3;99.9
49901;DHT22;35789;48.414;12.768;2023-12-29T04:40:00;2.2;99.9
49901;DHT22;35789;48.414;12.768;2023-12-29T04:45:00;2.2;99.9
49901;DHT22;35789;48.414;12.768;2023-12-29T04:50:00;2.1;99.9
49901;DHT22;35789;48.414;12.768;2023-12-29T04:55:00;2.2;99.9
49901;DHT22;35789;48.414;12.768;2023-12-29T05:00:00;2.3;99.9
49901;DHT22;35789;48.414;12.768;2023-12-29T05:05:00;2.3;99.9
49901;DHT22;35789;48.414;12.768;2023-12-29T05:10:00;2.5;99.9
49901;DHT22;35789;48.414;12.768;2023-12-29T05:15:00;2.5;99.9
49901;DHT22;35789;48.414;12.768;2023-12-29T05:20:00;2.5;99.9
49901;DHT22;35789;48.414;12.768;2023-12-29T05:25:01;2.6;99.9
49901;DHT22;35789;48.414;12.768;2023-12-29T05:30:00;2.7;99.9
49901;DHT22;35789;48.414;12.768;2023-12-29T05:35:00;2.6;99.9
49901;DHT22;35789;48.414;12.768;2023-12-29T05:40:00;2.6;99.9
49901;DHT22;35789;48.414;12.768;2023-12-29T05:45:00;2.6;99.9
49901;DHT22;35789;48.414;12.768;2023-12-29T05:50:00;2.6;99.9
49901;DHT22;35789;48.414;12.768;2023-12-29T05:55:00;2.7;99.9
49901;DHT22;35789;48.414;12.768;2023-12-29T06:00:00;2.8;99.9
49901;DHT22;35789;48.414;12.768;2023-12-29T06:05:00;2.9;99.9
49901;DHT22;35789;48.414;12.768;2023-12-29T06:10:00;2.9;99.9
49901;DHT22;35789;48.414;12.768;2023-12-29T06:15:00;3.0;99.9
49901;DHT22;35789;48.414;12.768;2023-12-29T06:20:00;3.0;99.9
49901;DHT22;35789;48.414;12.768;2023-12-29T06:25:00;3.1;99.9
49901;DHT22;35789;48.414;12.768;2023-12-29T06:30:00;3.1;99.9
49901;DHT22;35789;48.414;12.768;2023-12-29T06:35:00;3.2;99.9
49901;DHT22;35789;48.414;12.768;2023-12-29T06:40:00;3.2;99.9
49901;DHT22;35789;48.414;12.768;2023-12-29T06:45:00;3.3;99.9
49901;DHT22;35789;48.414;12.768;2023-12-29T06:50:00;3.3;99.9
49901;DHT22;35789;48.414;12.768;2023-12-29T06:55:00;3.3;99.9
49901;DHT22;35789;48.414;12.768;2023-12-29T07:00:00;3.4;99.9
49901;DHT22;35789;48.414;12.768;2023-12-29T07:05:00;3.4;99.9
49901;DHT22;35789;48.414;12.768;2023-12-29T07:10:00;3.5;99.9
49901;DHT22;35789;48.414;12.768;2023-12-29T07:15:00;3.5;99.9
49901;DHT22;35789;48.414;12.768;2023-12-29T07:20:00;3.5;99.9
49901;DHT22;35789;48.414;12.768;2023-12-29T07:25:00;3.6;99.9
49901;DHT22;35789;48.414;12.768;2023-12-29T07:30:00;3.6;99.9
49901;DHT22;35789;48.414;12.768;2023-12-29T07:35:00;3.6;99.9
49901;DHT22;35789;48.414;12.768;2023-12-29T07:40:00;3.7;99.9
49901;DHT22;35789;48.414;12.768;2023-12-29T07:45:00;3.7;99.9
49901;DHT22;35789;48.414;12.768;2023-12-29T07:50:00;3.8;99.9
49901;DHT22;35789;48.414;12.768;2023-12-29T07:55:00;3.9;99.9
49901;DHT22;35789;48.414;12.768;2023-12-29T08:00:00;3.9;99.9
49901;DHT22;35789;48.414;12.768;2023-12-29T08:05:00;4.0;99.9
49901;DHT22;35789;48.414;12.768;2023-12-29T08:10:00;4.0;99.9
49901;DHT22;35789;48.414;12.768;2023-12-29T08:15:00;4.1;99.9
49901;DHT22;35789;48.414;12.768;2023-12-29T08:20:00;4.2;99.9
49901;DHT22;35789;48.414;12.768;2023-12-29T08:25:00;4.3;99.9
49901;DHT22;35789;48.414;12.768;2023-12-29T08:30:03;4.4;99.9
49901;DHT22;35789;48.414;12.768;2023-12-29T08:35:00;4.4;99.9
49901;DHT22;35789;48.414;12.768;2023-12-29T08:45:00;4.6;99.9
49901;DHT22;35789;48.414;12.768;2023-12-29T08:50:05;4.6;99.9
49901;DHT22;35789;48.414;12.768;2023-12-29T08:55:00;4.7;99.9
49901;DHT22;35789;48.414;12.768;2023-12-29T09:00:00;4.8;99.9
49901;DHT22;35789;48.414;12.768;2023-12-29T09:05:00;4.9;99.9
49901;DHT22;35789;48.414;12.768;2023-12-29T09:10:00;4.9;99.9
49901;DHT22;35789;48.414;12.768;2023-12-29T09:15:00;4.9;99.9
49901;DHT22;35789;48.414;12.768;2023-12-29T09:20:00;4.9;99.9
49901;DHT22;35789;48.414;12.768;2023-12-29T09:25:00;4.9;99.9
49901;DHT22;35789;48.414;12.768;2023-12-29T09:30:00;4.9;99.9
49901;DHT22;35789;48.414;12.768;2023-12-29T09:35:00;4.8;99.9
49901;DHT22;35789;48.414;12.768;2023-12-29T09:40:00;4.7;99.9
49901;DHT22;35789;48.414;12.768;2023-12-29T09:45:00;4.6;99.9
49901;DHT22;35789;48.414;12.768;2023-12-29T09:50:00;4.6;99.9
49901;DHT22;35789;48.414;12.768;2023-12-29T09:55:00;4.5;99.9
49901;DHT22;35789;48.414;12.768;2023-12-29T10:00:00;4.5;99.9
49901;DHT22;35789;48.414;12.768;2023-12-29T10:05:01;4.6;99.9
49901;DHT22;35789;48.414;12.768;2023-12-29T10:10:00;4.7;99.9
49901;DHT22;35789;48.414;12.768;2023-12-29T10:15:04;4.9;99.9
49901;DHT22;35789;48.414;12.768;2023-12-29T10:20:02;5.1;99.9
49901;DHT22;35789;48.414;12.768;2023-12-29T10:25:00;5.4;99.9
49901;DHT22;35789;48.414;12.768;2023-12-29T10:30:00;5.6;99.9
49901;DHT22;35789;48.414;12.768;2023-12-29T10:35:07;5.8;99.9
49901;DHT22;35789;48.414;12.768;2023-12-29T10:40:00;6.0;99.9
49901;DHT22;35789;48.414;12.768;2023-12-29T10:45:04;6.1;99.9
49901;DHT22;35789;48.414;12.768;2023-12-29T10:50:00;6.2;99.9
49901;DHT22;35789;48.414;12.768;2023-12-29T10:55:03;6.4;99.9
49901;DHT22;35789;48.414;12.768;2023-12-29T11:00:00;6.4;99.9
49901;DHT22;35789;48.414;12.768;2023-12-29T11:05:02;6.4;99.6
49901;DHT22;35789;48.414;12.768;2023-12-29T11:10:00;6.4;99.9
49901;DHT22;35789;48.414;12.768;2023-12-29T11:15:00;6.3;99.9
49901;DHT22;35789;48.414;12.768;2023-12-29T11:20:00;6.3;99.9
49901;DHT22;35789;48.414;12.768;2023-12-29T11:25:00;6.3;99.9
49901;DHT22;35789;48.414;12.768;2023-12-29T11:30:03;6.5;99.9
49901;DHT22;35789;48.414;12.768;2023-12-29T11:35:03;6.7;99.9
49901;DHT22;35789;48.414;12.768;2023-12-29T11:40:08;6.7;99.9
49901;DHT22;35789;48.414;12.768;2023-12-29T11:45:03;7.0;99.9
49901;DHT22;35789;48.414;12.768;2023-12-29T11:50:00;7.0;99.9
49901;DHT22;35789;48.414;12.768;2023-12-29T11:55:06;7.2;99.9
49901;DHT22;35789;48.414;12.768;2023-12-29T12:00:00;7.3;99.9
49901;DHT22;35789;48.414;12.768;2023-12-29T12:05:00;7.4;99.7
49901;DHT22;35789;48.414;12.768;2023-12-29T12:15:00;7.3;99.9
49901;DHT22;35789;48.414;12.768;2023-12-29T12:20:01;7.5;99.2
49901;DHT22;35789;48.414;12.768;2023-12-29T12:25:00;7.6;99.3
49901;DHT22;35789;48.414;12.768;2023-12-29T12:30:00;7.6;99.5
49901;DHT22;35789;48.414;12.768;2023-12-29T12:35:00;7.7;99.1
49901;DHT22;35789;48.414;12.768;2023-12-29T12:40:00;7.8;98.9
49901;DHT22;35789;48.414;12.768;2023-12-29T12:45:03;7.7;99.2
49901;DHT22;35789;48.414;12.768;2023-12-29T12:50:00;7.5;99.6
49901;DHT22;35789;48.414;12.768;2023-12-29T12:55:00;7.5;99.1
49901;DHT22;35789;48.414;12.768;2023-12-29T13:00:00;7.7;99.3
49901;DHT22;35789;48.414;12.768;2023-12-29T13:05:00;7.7;99.2
49901;DHT22;35789;48.414;12.768;2023-12-29T13:10:00;7.7;98.7
49901;DHT22;35789;48.414;12.768;2023-12-29T13:15:07;7.7;99.0
49901;DHT22;35789;48.414;12.768;2023-12-29T13:20:00;7.6;99.1
49901;DHT22;35789;48.414;12.768;2023-12-29T13:25:00;7.6;99.3
49901;DHT22;35789;48.414;12.768;2023-12-29T13:30:00;7.6;99.4
49901;DHT22;35789;48.414;12.768;2023-12-29T13:35:02;7.5;99.9
49901;DHT22;35789;48.414;12.768;2023-12-29T13:40:01;7.5;99.9
49901;DHT22;35789;48.414;12.768;2023-12-29T13:45:00;7.5;99.9
49901;DHT22;35789;48.414;12.768;2023-12-29T13:50:00;7.5;99.9
49901;DHT22;35789;48.414;12.768;2023-12-29T13:55:00;7.7;99.9
49901;DHT22;35789;48.414;12.768;2023-12-29T14:10:00;8.7;98.3
49901;DHT22;35789;48.414;12.768;2023-12-29T14:15:02;8.8;97.9
49901;DHT22;35789;48.414;12.768;2023-12-29T14:20:00;8.7;98.3
49901;DHT22;35789;48.414;12.768;2023-12-29T14:25:01;8.6;98.1
49901;DHT22;35789;48.414;12.768;2023-12-29T14:30:00;8.7;97.8
49901;DHT22;35789;48.414;12.768;2023-12-29T14:35:00;8.6;98.0
49901;DHT22;35789;48.414;12.768;2023-12-29T14:40:00;8.6;98.1
49901;DHT22;35789;48.414;12.768;2023-12-29T14:45:00;8.6;98.1
49901;DHT22;35789;48.414;12.768;2023-12-29T14:50:00;8.5;98.4
49901;DHT22;35789;48.414;12.768;2023-12-29T14:55:00;8.4;98.5
49901;DHT22;35789;48.414;12.768;2023-12-29T15:00:00;8.6;98.3
49901;DHT22;35789;48.414;12.768;2023-12-29T15:05:00;8.6;98.2
49901;DHT22;35789;48.414;12.768;2023-12-29T15:10:00;8.7;97.9
49901;DHT22;35789;48.414;12.768;2023-12-29T15:15:00;8.5;97.8
49901;DHT22;35789;48.414;12.768;2023-12-29T15:20:00;8.4;98.3
49901;DHT22;35789;48.414;12.768;2023-12-29T15:25:00;8.3;98.4
49901;DHT22;35789;48.414;12.768;2023-12-29T15:30:00;8.2;98.2
49901;DHT22;35789;48.414;12.768;2023-12-29T15:35:00;7.9;98.7
49901;DHT22;35789;48.414;12.768;2023-12-29T15:40:00;7.8;98.9
49901;DHT22;35789;48.414;12.768;2023-12-29T15:45:00;7.8;99.1
49901;DHT22;35789;48.414;12.768;2023-12-29T15:50:00;7.6;99.3
49901;DHT22;35789;48.414;12.768;2023-12-29T15:55:02;7.4;99.5
49901;DHT22;35789;48.414;12.768;2023-12-29T16:00:00;7.3;99.6
49901;DHT22;35789;48.414;12.768;2023-12-29T16:05:00;7.3;99.6
49901;DHT22;35789;48.414;12.768;2023-12-29T16:10:00;7.3;99.6
49901;DHT22;35789;48.414;12.768;2023-12-29T16:15:00;7.1;99.5
49901;DHT22;35789;48.414;12.768;2023-12-29T16:20:00;7.0;99.7
49901;DHT22;35789;48.414;12.768;2023-12-29T16:25:00;7.0;99.6
49901;DHT22;35789;48.414;12.768;2023-12-29T16:30:00;7.0;99.6
49901;DHT22;35789;48.414;12.768;2023-12-29T16:35:00;6.9;99.5
49901;DHT22;35789;48.414;12.768;2023-12-29T16:40:00;6.7;99.5
49901;DHT22;35789;48.414;12.768;2023-12-29T16:45:00;6.6;99.7
49901;DHT22;35789;48.414;12.768;2023-12-29T16:50:00;6.5;99.8
49901;DHT22;35789;48.414;12.768;2023-12-29T16:55:00;6.4;99.8
49901;DHT22;35789;48.414;12.768;2023-12-29T17:00:00;6.3;99.9
49901;DHT22;35789;48.414;12.768;2023-12-29T17:05:00;6.2;99.9
49901;DHT22;35789;48.414;12.768;2023-12-29T17:10:00;6.1;99.9
49901;DHT22;35789;48.414;12.768;2023-12-29T17:15:00;6.0;99.9
49901;DHT22;35789;48.414;12.768;2023-12-29T17:20:00;5.9;99.9
49901;DHT22;35789;48.414;12.768;2023-12-29T17:25:00;5.9;99.9
49901;DHT22;35789;48.414;12.768;2023-12-29T17:30:00;5.8;99.9
49901;DHT22;35789;48.414;12.768;2023-12-29T17:35:00;5.8;99.9
49901;DHT22;35789;48.414;12.768;2023-12-29T17:40:00;5.7;99.9
49901;DHT22;35789;48.414;12.768;2023-12-29T17:45:00;5.6;99.8
49901;DHT22;35789;48.414;12.768;2023-12-29T17:50:00;5.5;99.9
49901;DHT22;35789;48.414;12.768;2023-12-29T17:55:00;5.4;99.9
49901;DHT22;35789;48.414;12.768;2023-12-29T18:00:00;5.3;99.9
49901;DHT22;35789;48.414;12.768;2023-12-29T18:05:00;5.3;99.9
49901;DHT22;35789;48.414;12.768;2023-12-29T18:10:00;5.2;99.9
49901;DHT22;35789;48.414;12.768;2023-12-29T18:15:00;5.1;99.9
49901;DHT22;35789;48.414;12.768;2023-12-29T18:20:00;5.0;99.7
49901;DHT22;35789;48.414;12.768;2023-12-29T18:25:00;4.9;99.8
49901;DHT22;35789;48.414;12.768;2023-12-29T18:30:00;4.8;99.9
49901;DHT22;35789;48.414;12.768;2023-12-29T18:35:00;4.7;99.7
49901;DHT22;35789;48.414;12.768;2023-12-29T18:40:00;4.6;99.9
49901;DHT22;35789;48.414;12.768;2023-12-29T18:45:00;4.6;99.9
49901;DHT22;35789;48.414;12.768;2023-12-29T18:50:00;4.6;99.9
49901;DHT22;35789;48.414;12.768;2023-12-29T18:55:00;4.6;99.9
49901;DHT22;35789;48.414;12.768;2023-12-29T19:00:00;4.5;99.9
49901;DHT22;35789;48.414;12.768;2023-12-29T19:05:00;4.4;99.9
49901;DHT22;35789;48.414;12.768;2023-12-29T19:10:00;4.4;99.9
49901;DHT22;35789;48.414;12.768;2023-12-29T19:15:00;4.3;99.9
49901;DHT22;35789;48.414;12.768;2023-12-29T19:20:00;4.2;99.9
49901;DHT22;35789;48.414;12.768;2023-12-29T19:25:00;4.2;99.9
49901;DHT22;35789;48.414;12.768;2023-12-29T19:30:00;4.1;99.9
49901;DHT22;35789;48.414;12.768;2023-12-29T19:35:00;4.1;99.9
49901;DHT22;35789;48.414;12.768;2023-12-29T19:40:00;4.1;99.9
49901;DHT22;35789;48.414;12.768;2023-12-29T19:45:00;4.1;99.9
49901;DHT22;35789;48.414;12.768;2023-12-29T19:50:00;4.1;99.9
49901;DHT22;35789;48.414;12.768;2023-12-29T19:55:00;4.1;99.9
49901;DHT22;35789;48.414;12.768;2023-12-29T20:00:00;4.1;99.9
49901;DHT22;35789;48.414;12.768;2023-12-29T20:05:00;4.1;99.9
49901;DHT22;35789;48.414;12.768;2023-12-29T20:10:00;4.0;99.9
49901;DHT22;35789;48.414;12.768;2023-12-29T20:15:00;4.0;99.9
49901;DHT22;35789;48.414;12.768;2023-12-29T20:20:00;3.9;99.9
49901;DHT22;35789;48.414;12.768;2023-12-29T20:25:03;3.9;99.9
49901;DHT22;35789;48.414;12.768;2023-12-29T20:30:00;3.8;99.9
49901;DHT22;35789;48.414;12.768;2023-12-29T20:35:00;3.7;99.9
49901;DHT22;35789;48.414;12.768;2023-12-29T20:40:00;3.7;99.9
49901;DHT22;35789;48.414;12.768;2023-12-29T20:45:00;3.7;99.9
49901;DHT22;35789;48.414;12.768;2023-12-29T20:50:00;3.7;99.9
49901;DHT22;35789;48.414;12.768;2023-12-29T20:55:00;3.6;99.9
49901;DHT22;35789;48.414;12.768;2023-12-29T21:00:00;3.5;99.9
49901;DHT22;35789;48.414;12.768;2023-12-29T21:05:00;3.5;99.9
49901;DHT22;35789;48.414;12.768;2023-12-29T21:10:00;3.5;99.9
49901;DHT22;35789;48.414;12.768;2023-12-29T21:15:00;3.5;99.9
49901;DHT22;35789;48.414;12.768;2023-12-29T21:20:00;3.4;99.9
49901;DHT22;35789;48.414;12.768;2023-12-29T21:25:00;3.4;99.9
49901;DHT22;35789;48.414;12.768;2023-12-29T21:30:00;3.3;99.9
49901;DHT22;35789;48.414;12.768;2023-12-29T21:35:00;3.3;99.9
49901;DHT22;35789;48.414;12.768;2023-12-29T21:40:00;3.2;99.9
49901;DHT22;35789;48.414;12.768;2023-12-29T21:45:00;3.2;99.9
49901;DHT22;35789;48.414;12.768;2023-12-29T21:50:02;3.2;99.9
49901;DHT22;35789;48.414;12.768;2023-12-29T21:55:00;3.2;99.9
49901;DHT22;35789;48.414;12.768;2023-12-29T22:00:00;3.1;99.9
49901;DHT22;35789;48.414;12.768;2023-12-29T22:05:00;3.0;99.9
49901;DHT22;35789;48.414;12.768;2023-12-29T22:10:00;3.0;99.9
49901;DHT22;35789;48.414;12.768;2023-12-29T22:15:00;2.9;99.9
49901;DHT22;35789;48.414;12.768;2023-12-29T22:20:00;2.9;99.9
49901;DHT22;35789;48.414;12.768;2023-12-29T22:25:01;2.9;99.9
49901;DHT22;35789;48.414;12.768;2023-12-29T22:30:00;2.9;99.9
49901;DHT22;35789;48.414;12.768;2023-12-29T22:35:00;2.8;99.9
49901;DHT22;35789;48.414;12.768;2023-12-29T22:40:03;2.7;99.9
49901;DHT22;35789;48.414;12.768;2023-12-29T22:45:00;2.7;99.9
49901;DHT22;35789;48.414;12.768;2023-12-29T22:50:00;2.7;99.9
49901;DHT22;35789;48.414;12.768;2023-12-29T22:55:00;2.7;99.9
49901;DHT22;35789;48.414;12.768;2023-12-29T23:00:00;2.7;99.9
49901;DHT22;35789;48.414;12.768;2023-12-29T23:05:00;2.7;99.9
49901;DHT22;35789;48.414;12.768;2023-12-29T23:10:00;2.8;99.9
49901;DHT22;35789;48.414;12.768;2023-12-29T23:15:00;2.7;99.9
49901;DHT22;35789;48.414;12.768;2023-12-29T23:20:00;2.8;99.9
49901;DHT22;35789;48.414;12.768;2023-12-29T23:25:00;2.7;99.9
49901;DHT22;35789;48.414;12.768;2023-12-29T23:30:00;2.7;99.9
49901;DHT22;35789;48.414;12.768;2023-12-29T23:35:00;2.7;99.9
49901;DHT22;35789;48.414;12.768;2023-12-29T23:40:00;2.7;99.9
49901;DHT22;35789;48.414;12.768;2023-12-29T23:45:00;2.7;99.9
49901;DHT22;35789;48.414;12.768;2023-12-29T23:50:00;2.7;99.9
49901;DHT22;35789;48.414;12.768;2023-12-29T23:55:00;2.8;99.9
